sensor_id;sensor_type;location;lat;lon;timestamp;temperature;humidity
18797;DHT22;9526;52.612;13.300;2024-03-07T00:01:58;6.80;99.90
18797;DHT22;9526;52.612;13.300;2024-03-07T00:04:22;6.80;99.90
18797;DHT22;9526;52.612;13.300;2024-03-07T00:06:48;6.80;99.90
18797;DHT22;9526;52.612;13.300;2024-03-07T00:09:12;6.80;99.90
18797;DHT22;9526;52.612;13.300;2024-03-07T00:11:37;6.90;99.90
18797;DHT22;9526;52.612;13.300;2024-03-07T00:14:01;6.80;99.90
18797;DHT22;9526;52.612;13.300;2024-03-07T00:16:25;6.80;99.90
18797;DHT22;9526;52.612;13.300;2024-03-07T00:18:49;6.80;99.90
18797;DHT22;9526;52.612;13.300;2024-03-07T00:21:13;6.80;99.90
18797;DHT22;9526;52.612;13.300;2024-03-07T00:23:39;6.80;99.90
18797;DHT22;9526;52.612;13.300;2024-03-07T00:26:03;6.80;99.90
18797;DHT22;9526;52.612;13.300;2024-03-07T00:28:27;6.80;99.90
18797;DHT22;9526;52.612;13.300;2024-03-07T00:30:54;6.70;99.90
18797;DHT22;9526;52.612;13.300;2024-03-07T00:33:18;6.80;99.90
18797;DHT22;9526;52.612;13.300;2024-03-07T00:35:44;6.70;99.90
18797;DHT22;9526;52.612;13.300;2024-03-07T00:38:07;6.70;99.90
18797;DHT22;9526;52.612;13.300;2024-03-07T00:40:32;6.70;99.90
18797;DHT22;9526;52.612;13.300;2024-03-07T00:42:56;6.80;99.90
18797;DHT22;9526;52.612;13.300;2024-03-07T00:45:21;6.70;99.90
18797;DHT22;9526;52.612;13.300;2024-03-07T00:47:45;6.80;99.90
18797;DHT22;9526;52.612;13.300;2024-03-07T00:50:10;6.70;99.90
18797;DHT22;9526;52.612;13.300;2024-03-07T00:52:34;6.70;99.90
18797;DHT22;9526;52.612;13.300;2024-03-07T00:54:58;6.70;99.90
18797;DHT22;9526;52.612;13.300;2024-03-07T00:57:23;6.70;99.90
18797;DHT22;9526;52.612;13.300;2024-03-07T00:59:47;6.70;99.90
18797;DHT22;9526;52.612;13.300;2024-03-07T01:02:11;6.70;99.90
18797;DHT22;9526;52.612;13.300;2024-03-07T01:04:35;6.70;99.90
18797;DHT22;9526;52.612;13.300;2024-03-07T01:06:59;6.80;99.90
18797;DHT22;9526;52.612;13.300;2024-03-07T01:09:23;6.70;99.90
18797;DHT22;9526;52.612;13.300;2024-03-07T01:11:46;6.70;99.90
18797;DHT22;9526;52.612;13.300;2024-03-07T01:14:13;6.70;99.90
18797;DHT22;9526;52.612;13.300;2024-03-07T01:16:37;6.70;99.90
18797;DHT22;9526;52.612;13.300;2024-03-07T01:19:00;6.70;99.90
18797;DHT22;9526;52.612;13.300;2024-03-07T01:21:25;6.70;99.90
18797;DHT22;9526;52.612;13.300;2024-03-07T01:23:49;6.70;99.90
18797;DHT22;9526;52.612;13.300;2024-03-07T01:26:13;6.70;99.90
18797;DHT22;9526;52.612;13.300;2024-03-07T01:28:36;6.70;99.90
18797;DHT22;9526;52.612;13.300;2024-03-07T01:31:01;6.70;99.90
18797;DHT22;9526;52.612;13.300;2024-03-07T01:33:25;6.60;99.90
18797;DHT22;9526;52.612;13.300;2024-03-07T01:35:50;6.60;99.90
18797;DHT22;9526;52.612;13.300;2024-03-07T01:38:14;6.70;99.90
18797;DHT22;9526;52.612;13.300;2024-03-07T01:40:39;6.70;99.90
18797;DHT22;9526;52.612;13.300;2024-03-07T01:43:03;6.70;99.90
18797;DHT22;9526;52.612;13.300;2024-03-07T01:45:27;6.70;99.90
18797;DHT22;9526;52.612;13.300;2024-03-07T01:47:53;6.70;99.90
18797;DHT22;9526;52.612;13.300;2024-03-07T01:50:18;6.70;99.90
18797;DHT22;9526;52.612;13.300;2024-03-07T01:52:41;6.60;99.90
18797;DHT22;9526;52.612;13.300;2024-03-07T01:55:07;6.60;99.90
18797;DHT22;9526;52.612;13.300;2024-03-07T01:57:36;6.60;99.90
18797;DHT22;9526;52.612;13.300;2024-03-07T02:00:01;6.60;99.90
18797;DHT22;9526;52.612;13.300;2024-03-07T02:02:29;6.60;99.90
18797;DHT22;9526;52.612;13.300;2024-03-07T02:04:54;6.50;99.90
18797;DHT22;9526;52.612;13.300;2024-03-07T02:07:18;6.50;99.90
18797;DHT22;9526;52.612;13.300;2024-03-07T02:09:41;6.50;99.90
18797;DHT22;9526;52.612;13.300;2024-03-07T02:12:06;6.50;99.90
18797;DHT22;9526;52.612;13.300;2024-03-07T02:14:31;6.40;99.90
18797;DHT22;9526;52.612;13.300;2024-03-07T02:16:55;6.40;99.90
18797;DHT22;9526;52.612;13.300;2024-03-07T02:19:19;6.50;99.90
18797;DHT22;9526;52.612;13.300;2024-03-07T02:21:44;6.40;99.90
18797;DHT22;9526;52.612;13.300;2024-03-07T02:24:08;6.40;99.90
18797;DHT22;9526;52.612;13.300;2024-03-07T02:26:31;6.40;99.90
18797;DHT22;9526;52.612;13.300;2024-03-07T02:28:55;6.40;99.90
18797;DHT22;9526;52.612;13.300;2024-03-07T02:31:19;6.30;99.90
18797;DHT22;9526;52.612;13.300;2024-03-07T02:33:50;6.30;99.90
18797;DHT22;9526;52.612;13.300;2024-03-07T02:36:14;6.30;99.90
18797;DHT22;9526;52.612;13.300;2024-03-07T02:38:39;6.20;99.90
18797;DHT22;9526;52.612;13.300;2024-03-07T02:41:03;6.20;99.90
18797;DHT22;9526;52.612;13.300;2024-03-07T02:43:28;6.10;99.90
18797;DHT22;9526;52.612;13.300;2024-03-07T02:45:51;6.10;99.90
18797;DHT22;9526;52.612;13.300;2024-03-07T02:48:15;6.10;99.90
18797;DHT22;9526;52.612;13.300;2024-03-07T02:50:41;6.10;99.90
18797;DHT22;9526;52.612;13.300;2024-03-07T02:53:05;6.10;99.90
18797;DHT22;9526;52.612;13.300;2024-03-07T02:55:30;6.10;99.90
18797;DHT22;9526;52.612;13.300;2024-03-07T02:57:54;6.10;99.90
18797;DHT22;9526;52.612;13.300;2024-03-07T03:00:20;6.00;99.90
18797;DHT22;9526;52.612;13.300;2024-03-07T03:02:49;6.10;99.90
18797;DHT22;9526;52.612;13.300;2024-03-07T03:05:13;6.00;99.90
18797;DHT22;9526;52.612;13.300;2024-03-07T03:07:37;5.90;99.90
18797;DHT22;9526;52.612;13.300;2024-03-07T03:10:01;6.00;99.90
18797;DHT22;9526;52.612;13.300;2024-03-07T03:12:33;5.90;99.90
18797;DHT22;9526;52.612;13.300;2024-03-07T03:14:59;5.90;99.90
18797;DHT22;9526;52.612;13.300;2024-03-07T03:17:22;5.90;99.90
18797;DHT22;9526;52.612;13.300;2024-03-07T03:19:46;6.00;99.90
18797;DHT22;9526;52.612;13.300;2024-03-07T03:22:12;6.00;99.90
18797;DHT22;9526;52.612;13.300;2024-03-07T03:24:35;6.00;99.90
18797;DHT22;9526;52.612;13.300;2024-03-07T03:27:00;5.90;99.90
18797;DHT22;9526;52.612;13.300;2024-03-07T03:29:25;5.90;99.90
18797;DHT22;9526;52.612;13.300;2024-03-07T03:31:50;5.90;99.90
18797;DHT22;9526;52.612;13.300;2024-03-07T03:34:14;5.90;99.90
18797;DHT22;9526;52.612;13.300;2024-03-07T03:36:38;5.90;99.90
18797;DHT22;9526;52.612;13.300;2024-03-07T03:39:02;5.90;99.90
18797;DHT22;9526;52.612;13.300;2024-03-07T03:41:26;6.00;99.90
18797;DHT22;9526;52.612;13.300;2024-03-07T03:43:50;6.00;99.90
18797;DHT22;9526;52.612;13.300;2024-03-07T03:46:16;6.00;99.90
18797;DHT22;9526;52.612;13.300;2024-03-07T03:48:40;6.00;99.90
18797;DHT22;9526;52.612;13.300;2024-03-07T03:51:06;6.00;99.90
18797;DHT22;9526;52.612;13.300;2024-03-07T03:53:30;6.00;99.90
18797;DHT22;9526;52.612;13.300;2024-03-07T03:55:54;6.00;99.90
18797;DHT22;9526;52.612;13.300;2024-03-07T03:58:17;6.00;99.90
18797;DHT22;9526;52.612;13.300;2024-03-07T04:00:41;6.00;99.90
18797;DHT22;9526;52.612;13.300;2024-03-07T04:03:06;6.00;99.90
18797;DHT22;9526;52.612;13.300;2024-03-07T04:05:30;6.00;99.90
18797;DHT22;9526;52.612;13.300;2024-03-07T04:07:54;6.00;99.90
18797;DHT22;9526;52.612;13.300;2024-03-07T04:10:19;6.00;99.90
18797;DHT22;9526;52.612;13.300;2024-03-07T04:12:44;6.00;99.90
18797;DHT22;9526;52.612;13.300;2024-03-07T04:15:09;6.00;99.90
18797;DHT22;9526;52.612;13.300;2024-03-07T04:17:34;6.00;99.90
18797;DHT22;9526;52.612;13.300;2024-03-07T04:19:59;6.00;99.90
18797;DHT22;9526;52.612;13.300;2024-03-07T04:22:24;6.00;99.90
18797;DHT22;9526;52.612;13.300;2024-03-07T04:24:48;5.90;99.90
18797;DHT22;9526;52.612;13.300;2024-03-07T04:27:15;5.90;99.90
18797;DHT22;9526;52.612;13.300;2024-03-07T04:29:44;5.90;99.90
18797;DHT22;9526;52.612;13.300;2024-03-07T04:32:10;5.90;99.90
18797;DHT22;9526;52.612;13.300;2024-03-07T04:34:33;5.90;99.90
18797;DHT22;9526;52.612;13.300;2024-03-07T04:37:00;5.90;99.90
18797;DHT22;9526;52.612;13.300;2024-03-07T04:39:24;5.90;99.90
18797;DHT22;9526;52.612;13.300;2024-03-07T04:41:50;5.90;99.90
18797;DHT22;9526;52.612;13.300;2024-03-07T04:44:19;5.80;99.90
18797;DHT22;9526;52.612;13.300;2024-03-07T04:46:44;5.80;99.90
18797;DHT22;9526;52.612;13.300;2024-03-07T04:49:09;5.80;99.90
18797;DHT22;9526;52.612;13.300;2024-03-07T04:51:33;5.80;99.90
18797;DHT22;9526;52.612;13.300;2024-03-07T04:54:02;5.70;99.90
18797;DHT22;9526;52.612;13.300;2024-03-07T04:56:26;5.70;99.90
18797;DHT22;9526;52.612;13.300;2024-03-07T04:58:50;5.60;99.90
18797;DHT22;9526;52.612;13.300;2024-03-07T05:01:15;5.60;99.90
18797;DHT22;9526;52.612;13.300;2024-03-07T05:03:39;5.50;99.90
18797;DHT22;9526;52.612;13.300;2024-03-07T05:06:04;5.50;99.90
18797;DHT22;9526;52.612;13.300;2024-03-07T05:08:28;5.40;99.90
18797;DHT22;9526;52.612;13.300;2024-03-07T05:10:54;5.30;99.90
18797;DHT22;9526;52.612;13.300;2024-03-07T05:13:18;5.30;99.90
18797;DHT22;9526;52.612;13.300;2024-03-07T05:15:41;5.20;99.90
18797;DHT22;9526;52.612;13.300;2024-03-07T05:18:05;5.10;99.90
18797;DHT22;9526;52.612;13.300;2024-03-07T05:20:34;5.10;99.90
18797;DHT22;9526;52.612;13.300;2024-03-07T05:22:58;5.00;99.90
18797;DHT22;9526;52.612;13.300;2024-03-07T05:25:22;5.00;99.90
18797;DHT22;9526;52.612;13.300;2024-03-07T05:27:47;4.90;99.90
18797;DHT22;9526;52.612;13.300;2024-03-07T05:30:12;4.80;99.90
18797;DHT22;9526;52.612;13.300;2024-03-07T05:32:38;4.70;99.90
18797;DHT22;9526;52.612;13.300;2024-03-07T05:35:02;4.70;99.90
18797;DHT22;9526;52.612;13.300;2024-03-07T05:37:26;4.70;99.90
18797;DHT22;9526;52.612;13.300;2024-03-07T05:39:50;4.70;99.90
18797;DHT22;9526;52.612;13.300;2024-03-07T05:42:14;4.60;99.90
18797;DHT22;9526;52.612;13.300;2024-03-07T05:44:39;4.60;99.90
18797;DHT22;9526;52.612;13.300;2024-03-07T05:47:03;4.50;99.90
18797;DHT22;9526;52.612;13.300;2024-03-07T05:49:29;4.50;99.90
18797;DHT22;9526;52.612;13.300;2024-03-07T05:51:53;4.40;99.90
18797;DHT22;9526;52.612;13.300;2024-03-07T05:54:17;4.40;99.90
18797;DHT22;9526;52.612;13.300;2024-03-07T05:56:41;4.40;99.90
18797;DHT22;9526;52.612;13.300;2024-03-07T05:59:05;4.30;99.90
18797;DHT22;9526;52.612;13.300;2024-03-07T06:01:33;4.20;99.90
18797;DHT22;9526;52.612;13.300;2024-03-07T06:03:56;4.20;99.90
18797;DHT22;9526;52.612;13.300;2024-03-07T06:06:20;4.20;99.90
18797;DHT22;9526;52.612;13.300;2024-03-07T06:08:44;4.10;99.90
18797;DHT22;9526;52.612;13.300;2024-03-07T06:11:08;4.10;99.90
18797;DHT22;9526;52.612;13.300;2024-03-07T06:13:32;4.10;99.90
18797;DHT22;9526;52.612;13.300;2024-03-07T06:15:55;4.10;99.90
18797;DHT22;9526;52.612;13.300;2024-03-07T06:18:20;4.10;99.90
18797;DHT22;9526;52.612;13.300;2024-03-07T06:20:45;4.10;99.90
18797;DHT22;9526;52.612;13.300;2024-03-07T06:23:10;4.00;99.90
18797;DHT22;9526;52.612;13.300;2024-03-07T06:25:34;4.00;99.90
18797;DHT22;9526;52.612;13.300;2024-03-07T06:27:59;4.00;99.90
18797;DHT22;9526;52.612;13.300;2024-03-07T06:30:31;4.00;99.90
18797;DHT22;9526;52.612;13.300;2024-03-07T06:32:55;4.00;99.90
18797;DHT22;9526;52.612;13.300;2024-03-07T06:35:20;4.00;99.90
18797;DHT22;9526;52.612;13.300;2024-03-07T06:37:44;4.00;99.90
18797;DHT22;9526;52.612;13.300;2024-03-07T06:40:09;4.00;99.90
18797;DHT22;9526;52.612;13.300;2024-03-07T06:42:36;4.00;99.90
18797;DHT22;9526;52.612;13.300;2024-03-07T06:45:00;4.10;99.90
18797;DHT22;9526;52.612;13.300;2024-03-07T06:47:24;4.10;99.90
18797;DHT22;9526;52.612;13.300;2024-03-07T06:49:48;4.10;99.90
18797;DHT22;9526;52.612;13.300;2024-03-07T06:52:13;4.20;99.90
18797;DHT22;9526;52.612;13.300;2024-03-07T06:54:37;4.30;99.90
18797;DHT22;9526;52.612;13.300;2024-03-07T06:57:01;4.60;99.90
18797;DHT22;9526;52.612;13.300;2024-03-07T06:59:25;5.00;99.90
18797;DHT22;9526;52.612;13.300;2024-03-07T07:01:48;5.40;99.90
18797;DHT22;9526;52.612;13.300;2024-03-07T07:04:13;5.80;99.90
18797;DHT22;9526;52.612;13.300;2024-03-07T07:06:37;6.10;99.90
18797;DHT22;9526;52.612;13.300;2024-03-07T07:09:02;6.40;99.90
18797;DHT22;9526;52.612;13.300;2024-03-07T07:11:28;6.70;99.90
18797;DHT22;9526;52.612;13.300;2024-03-07T07:13:56;6.90;99.90
18797;DHT22;9526;52.612;13.300;2024-03-07T07:16:20;6.90;99.90
18797;DHT22;9526;52.612;13.300;2024-03-07T07:18:44;6.90;99.90
18797;DHT22;9526;52.612;13.300;2024-03-07T07:21:07;6.90;99.90
18797;DHT22;9526;52.612;13.300;2024-03-07T07:23:33;6.90;99.90
18797;DHT22;9526;52.612;13.300;2024-03-07T07:25:59;6.90;99.90
18797;DHT22;9526;52.612;13.300;2024-03-07T07:28:24;6.70;99.90
18797;DHT22;9526;52.612;13.300;2024-03-07T07:30:48;6.50;99.90
18797;DHT22;9526;52.612;13.300;2024-03-07T07:33:12;6.30;99.90
18797;DHT22;9526;52.612;13.300;2024-03-07T07:35:36;6.20;99.90
18797;DHT22;9526;52.612;13.300;2024-03-07T07:38:01;6.10;99.90
18797;DHT22;9526;52.612;13.300;2024-03-07T07:40:25;6.00;99.90
18797;DHT22;9526;52.612;13.300;2024-03-07T07:42:52;5.80;99.90
18797;DHT22;9526;52.612;13.300;2024-03-07T07:45:16;5.80;99.90
18797;DHT22;9526;52.612;13.300;2024-03-07T07:47:42;5.80;99.90
18797;DHT22;9526;52.612;13.300;2024-03-07T07:50:07;5.80;99.90
18797;DHT22;9526;52.612;13.300;2024-03-07T07:52:34;5.70;99.90
18797;DHT22;9526;52.612;13.300;2024-03-07T07:54:58;5.70;99.90
18797;DHT22;9526;52.612;13.300;2024-03-07T07:57:22;5.80;99.90
18797;DHT22;9526;52.612;13.300;2024-03-07T07:59:47;6.00;99.90
18797;DHT22;9526;52.612;13.300;2024-03-07T08:02:11;6.10;99.90
18797;DHT22;9526;52.612;13.300;2024-03-07T08:04:35;6.10;99.90
18797;DHT22;9526;52.612;13.300;2024-03-07T08:06:59;6.00;99.90
18797;DHT22;9526;52.612;13.300;2024-03-07T08:09:23;6.00;99.90
18797;DHT22;9526;52.612;13.300;2024-03-07T08:11:47;6.00;99.90
18797;DHT22;9526;52.612;13.300;2024-03-07T08:14:12;5.80;99.90
18797;DHT22;9526;52.612;13.300;2024-03-07T08:16:37;5.80;99.90
18797;DHT22;9526;52.612;13.300;2024-03-07T08:19:02;5.90;99.90
18797;DHT22;9526;52.612;13.300;2024-03-07T08:21:26;5.90;99.90
18797;DHT22;9526;52.612;13.300;2024-03-07T08:23:50;6.00;99.90
18797;DHT22;9526;52.612;13.300;2024-03-07T08:26:14;6.00;99.90
18797;DHT22;9526;52.612;13.300;2024-03-07T08:28:38;6.10;99.90
18797;DHT22;9526;52.612;13.300;2024-03-07T08:31:02;6.20;99.90
18797;DHT22;9526;52.612;13.300;2024-03-07T08:33:28;6.40;99.90
18797;DHT22;9526;52.612;13.300;2024-03-07T08:35:55;6.70;99.90
18797;DHT22;9526;52.612;13.300;2024-03-07T08:38:19;6.80;99.90
18797;DHT22;9526;52.612;13.300;2024-03-07T08:40:43;7.10;99.90
18797;DHT22;9526;52.612;13.300;2024-03-07T08:43:07;7.40;99.90
18797;DHT22;9526;52.612;13.300;2024-03-07T08:45:31;7.70;99.90
18797;DHT22;9526;52.612;13.300;2024-03-07T08:47:57;7.70;99.90
18797;DHT22;9526;52.612;13.300;2024-03-07T08:50:24;8.00;99.90
18797;DHT22;9526;52.612;13.300;2024-03-07T08:52:50;8.20;99.90
18797;DHT22;9526;52.612;13.300;2024-03-07T08:55:15;8.40;99.90
18797;DHT22;9526;52.612;13.300;2024-03-07T08:57:41;8.50;99.90
18797;DHT22;9526;52.612;13.300;2024-03-07T09:00:09;8.80;99.90
18797;DHT22;9526;52.612;13.300;2024-03-07T09:02:34;8.70;99.90
18797;DHT22;9526;52.612;13.300;2024-03-07T09:05:00;8.90;99.90
18797;DHT22;9526;52.612;13.300;2024-03-07T09:07:26;8.70;99.90
18797;DHT22;9526;52.612;13.300;2024-03-07T09:09:51;8.50;99.90
18797;DHT22;9526;52.612;13.300;2024-03-07T09:12:16;8.80;99.90
18797;DHT22;9526;52.612;13.300;2024-03-07T09:14:43;8.80;99.90
18797;DHT22;9526;52.612;13.300;2024-03-07T09:17:11;9.20;99.90
18797;DHT22;9526;52.612;13.300;2024-03-07T09:19:35;9.20;99.90
18797;DHT22;9526;52.612;13.300;2024-03-07T09:22:00;9.40;99.90
18797;DHT22;9526;52.612;13.300;2024-03-07T09:24:27;9.50;99.90
18797;DHT22;9526;52.612;13.300;2024-03-07T09:26:52;9.80;99.90
18797;DHT22;9526;52.612;13.300;2024-03-07T09:29:19;9.80;99.90
18797;DHT22;9526;52.612;13.300;2024-03-07T09:31:45;10.00;99.90
18797;DHT22;9526;52.612;13.300;2024-03-07T09:34:10;10.00;99.90
18797;DHT22;9526;52.612;13.300;2024-03-07T09:36:35;10.20;99.90
18797;DHT22;9526;52.612;13.300;2024-03-07T09:38:59;10.60;99.90
18797;DHT22;9526;52.612;13.300;2024-03-07T09:41:25;10.60;99.90
18797;DHT22;9526;52.612;13.300;2024-03-07T09:43:52;11.00;99.90
18797;DHT22;9526;52.612;13.300;2024-03-07T09:46:18;11.10;99.90
18797;DHT22;9526;52.612;13.300;2024-03-07T09:48:42;11.10;99.90
18797;DHT22;9526;52.612;13.300;2024-03-07T09:51:07;11.10;99.90
18797;DHT22;9526;52.612;13.300;2024-03-07T09:53:37;10.90;99.90
18797;DHT22;9526;52.612;13.300;2024-03-07T09:56:04;11.10;99.90
18797;DHT22;9526;52.612;13.300;2024-03-07T09:58:32;11.20;99.90
18797;DHT22;9526;52.612;13.300;2024-03-07T10:01:03;10.80;99.90
18797;DHT22;9526;52.612;13.300;2024-03-07T10:03:34;10.90;99.90
18797;DHT22;9526;52.612;13.300;2024-03-07T10:05:59;10.90;99.90
18797;DHT22;9526;52.612;13.300;2024-03-07T10:08:26;10.90;99.80
18797;DHT22;9526;52.612;13.300;2024-03-07T10:10:52;10.80;99.90
18797;DHT22;9526;52.612;13.300;2024-03-07T10:13:19;10.80;99.90
18797;DHT22;9526;52.612;13.300;2024-03-07T10:15:46;10.70;99.90
18797;DHT22;9526;52.612;13.300;2024-03-07T10:18:11;11.00;99.90
18797;DHT22;9526;52.612;13.300;2024-03-07T10:20:37;11.20;99.90
18797;DHT22;9526;52.612;13.300;2024-03-07T10:23:05;11.50;99.90
18797;DHT22;9526;52.612;13.300;2024-03-07T10:25:30;11.40;99.90
18797;DHT22;9526;52.612;13.300;2024-03-07T10:27:55;11.70;99.90
18797;DHT22;9526;52.612;13.300;2024-03-07T10:30:23;12.10;99.90
18797;DHT22;9526;52.612;13.300;2024-03-07T10:32:52;12.10;99.60
18797;DHT22;9526;52.612;13.300;2024-03-07T10:35:21;12.00;97.90
18797;DHT22;9526;52.612;13.300;2024-03-07T10:37:47;11.50;97.40
18797;DHT22;9526;52.612;13.300;2024-03-07T10:40:13;11.50;97.40
18797;DHT22;9526;52.612;13.300;2024-03-07T10:42:42;11.10;97.70
18797;DHT22;9526;52.612;13.300;2024-03-07T10:45:09;11.30;98.30
18797;DHT22;9526;52.612;13.300;2024-03-07T10:47:37;11.20;97.80
18797;DHT22;9526;52.612;13.300;2024-03-07T10:50:12;11.20;98.10
18797;DHT22;9526;52.612;13.300;2024-03-07T10:52:48;11.20;95.90
18797;DHT22;9526;52.612;13.300;2024-03-07T10:55:29;11.10;96.40
18797;DHT22;9526;52.612;13.300;2024-03-07T10:58:02;11.10;96.20
18797;DHT22;9526;52.612;13.300;2024-03-07T11:00:31;10.80;96.40
18797;DHT22;9526;52.612;13.300;2024-03-07T11:02:59;10.90;96.40
18797;DHT22;9526;52.612;13.300;2024-03-07T11:05:27;11.00;97.90
18797;DHT22;9526;52.612;13.300;2024-03-07T11:07:52;11.40;97.00
18797;DHT22;9526;52.612;13.300;2024-03-07T11:10:16;11.40;96.30
18797;DHT22;9526;52.612;13.300;2024-03-07T11:12:43;11.50;96.20
18797;DHT22;9526;52.612;13.300;2024-03-07T11:15:09;11.20;96.70
18797;DHT22;9526;52.612;13.300;2024-03-07T11:17:37;11.30;97.60
18797;DHT22;9526;52.612;13.300;2024-03-07T11:20:19;11.20;96.40
18797;DHT22;9526;52.612;13.300;2024-03-07T11:22:45;10.90;95.90
18797;DHT22;9526;52.612;13.300;2024-03-07T11:25:09;10.80;96.50
18797;DHT22;9526;52.612;13.300;2024-03-07T11:27:36;10.80;96.60
18797;DHT22;9526;52.612;13.300;2024-03-07T11:30:05;10.70;96.50
18797;DHT22;9526;52.612;13.300;2024-03-07T11:32:34;10.60;97.10
18797;DHT22;9526;52.612;13.300;2024-03-07T11:35:05;11.00;98.90
18797;DHT22;9526;52.612;13.300;2024-03-07T11:37:40;11.10;97.10
18797;DHT22;9526;52.612;13.300;2024-03-07T11:40:11;11.00;97.80
18797;DHT22;9526;52.612;13.300;2024-03-07T11:42:44;11.10;98.20
18797;DHT22;9526;52.612;13.300;2024-03-07T11:45:10;11.20;96.50
18797;DHT22;9526;52.612;13.300;2024-03-07T11:47:46;11.10;96.80
18797;DHT22;9526;52.612;13.300;2024-03-07T11:50:11;11.10;96.80
18797;DHT22;9526;52.612;13.300;2024-03-07T11:52:42;11.20;96.90
18797;DHT22;9526;52.612;13.300;2024-03-07T11:55:08;11.00;96.40
18797;DHT22;9526;52.612;13.300;2024-03-07T11:57:36;11.00;97.10
18797;DHT22;9526;52.612;13.300;2024-03-07T12:00:12;10.80;95.90
18797;DHT22;9526;52.612;13.300;2024-03-07T12:02:40;10.90;96.50
18797;DHT22;9526;52.612;13.300;2024-03-07T12:05:07;10.90;95.50
18797;DHT22;9526;52.612;13.300;2024-03-07T12:07:32;10.60;95.60
18797;DHT22;9526;52.612;13.300;2024-03-07T12:09:59;10.40;96.30
18797;DHT22;9526;52.612;13.300;2024-03-07T12:12:28;10.40;97.00
18797;DHT22;9526;52.612;13.300;2024-03-07T12:14:53;10.50;97.00
18797;DHT22;9526;52.612;13.300;2024-03-07T12:17:19;10.40;96.20
18797;DHT22;9526;52.612;13.300;2024-03-07T12:19:45;10.30;96.30
18797;DHT22;9526;52.612;13.300;2024-03-07T12:22:12;10.50;98.00
18797;DHT22;9526;52.612;13.300;2024-03-07T12:24:37;10.60;97.30
18797;DHT22;9526;52.612;13.300;2024-03-07T12:27:06;10.50;96.00
18797;DHT22;9526;52.612;13.300;2024-03-07T12:29:32;10.60;95.40
18797;DHT22;9526;52.612;13.300;2024-03-07T12:31:57;10.40;94.70
18797;DHT22;9526;52.612;13.300;2024-03-07T12:34:21;10.30;95.60
18797;DHT22;9526;52.612;13.300;2024-03-07T12:36:52;10.20;94.50
18797;DHT22;9526;52.612;13.300;2024-03-07T12:39:27;10.30;95.30
18797;DHT22;9526;52.612;13.300;2024-03-07T12:41:56;10.30;95.20
18797;DHT22;9526;52.612;13.300;2024-03-07T12:44:20;10.10;93.60
18797;DHT22;9526;52.612;13.300;2024-03-07T12:46:47;10.00;94.90
18797;DHT22;9526;52.612;13.300;2024-03-07T12:49:11;10.00;95.00
18797;DHT22;9526;52.612;13.300;2024-03-07T12:51:37;9.90;95.50
18797;DHT22;9526;52.612;13.300;2024-03-07T12:54:03;10.00;95.30
18797;DHT22;9526;52.612;13.300;2024-03-07T12:56:27;9.90;95.10
18797;DHT22;9526;52.612;13.300;2024-03-07T12:58:57;10.00;95.50
18797;DHT22;9526;52.612;13.300;2024-03-07T13:01:22;10.00;94.70
18797;DHT22;9526;52.612;13.300;2024-03-07T13:03:48;9.90;94.50
18797;DHT22;9526;52.612;13.300;2024-03-07T13:06:12;9.90;95.60
18797;DHT22;9526;52.612;13.300;2024-03-07T13:08:36;10.00;95.90
18797;DHT22;9526;52.612;13.300;2024-03-07T13:11:03;10.10;95.60
18797;DHT22;9526;52.612;13.300;2024-03-07T13:13:28;10.00;94.50
18797;DHT22;9526;52.612;13.300;2024-03-07T13:15:53;10.00;94.60
18797;DHT22;9526;52.612;13.300;2024-03-07T13:18:18;10.00;95.70
18797;DHT22;9526;52.612;13.300;2024-03-07T13:20:43;9.90;95.30
18797;DHT22;9526;52.612;13.300;2024-03-07T13:23:08;9.60;94.60
18797;DHT22;9526;52.612;13.300;2024-03-07T13:25:32;9.70;95.70
18797;DHT22;9526;52.612;13.300;2024-03-07T13:27:59;9.70;95.70
18797;DHT22;9526;52.612;13.300;2024-03-07T13:30:25;9.60;95.20
18797;DHT22;9526;52.612;13.300;2024-03-07T13:32:50;9.60;95.20
18797;DHT22;9526;52.612;13.300;2024-03-07T13:35:15;9.60;95.40
18797;DHT22;9526;52.612;13.300;2024-03-07T13:37:43;9.60;95.00
18797;DHT22;9526;52.612;13.300;2024-03-07T13:40:08;9.60;94.10
18797;DHT22;9526;52.612;13.300;2024-03-07T13:42:45;9.50;94.20
18797;DHT22;9526;52.612;13.300;2024-03-07T13:45:13;9.50;93.90
18797;DHT22;9526;52.612;13.300;2024-03-07T13:47:37;9.50;94.10
18797;DHT22;9526;52.612;13.300;2024-03-07T13:50:01;9.60;94.90
18797;DHT22;9526;52.612;13.300;2024-03-07T13:52:25;9.60;94.60
18797;DHT22;9526;52.612;13.300;2024-03-07T13:54:55;9.50;95.00
18797;DHT22;9526;52.612;13.300;2024-03-07T13:57:26;9.50;94.90
18797;DHT22;9526;52.612;13.300;2024-03-07T14:00:06;9.40;94.70
18797;DHT22;9526;52.612;13.300;2024-03-07T14:06:03;9.30;94.00
18797;DHT22;9526;52.612;13.300;2024-03-07T14:08:57;9.30;93.40
18797;DHT22;9526;52.612;13.300;2024-03-07T14:12:28;9.30;94.30
18797;DHT22;9526;52.612;13.300;2024-03-07T14:19:20;9.30;93.30
18797;DHT22;9526;52.612;13.300;2024-03-07T14:22:22;9.30;93.30
18797;DHT22;9526;52.612;13.300;2024-03-07T14:25:32;9.30;93.70
18797;DHT22;9526;52.612;13.300;2024-03-07T14:28:16;9.40;93.80
18797;DHT22;9526;52.612;13.300;2024-03-07T14:30:52;9.40;93.60
18797;DHT22;9526;52.612;13.300;2024-03-07T14:33:20;9.40;93.60
18797;DHT22;9526;52.612;13.300;2024-03-07T14:36:02;9.40;93.60
18797;DHT22;9526;52.612;13.300;2024-03-07T14:38:43;9.30;93.20
18797;DHT22;9526;52.612;13.300;2024-03-07T14:41:13;9.30;93.00
18797;DHT22;9526;52.612;13.300;2024-03-07T14:43:40;9.40;93.30
18797;DHT22;9526;52.612;13.300;2024-03-07T14:46:04;9.40;94.50
18797;DHT22;9526;52.612;13.300;2024-03-07T14:48:28;9.30;94.70
18797;DHT22;9526;52.612;13.300;2024-03-07T14:50:53;9.40;94.60
18797;DHT22;9526;52.612;13.300;2024-03-07T14:53:17;9.30;95.10
18797;DHT22;9526;52.612;13.300;2024-03-07T14:55:44;9.30;95.50
18797;DHT22;9526;52.612;13.300;2024-03-07T14:58:07;9.30;96.00
18797;DHT22;9526;52.612;13.300;2024-03-07T15:00:33;9.30;95.70
18797;DHT22;9526;52.612;13.300;2024-03-07T15:03:06;9.20;96.10
18797;DHT22;9526;52.612;13.300;2024-03-07T15:05:31;9.20;96.20
18797;DHT22;9526;52.612;13.300;2024-03-07T15:07:54;9.30;96.10
18797;DHT22;9526;52.612;13.300;2024-03-07T15:10:21;9.20;96.30
18797;DHT22;9526;52.612;13.300;2024-03-07T15:12:49;9.20;96.30
18797;DHT22;9526;52.612;13.300;2024-03-07T15:15:12;9.20;96.80
18797;DHT22;9526;52.612;13.300;2024-03-07T15:17:40;9.10;96.80
18797;DHT22;9526;52.612;13.300;2024-03-07T15:20:05;9.10;96.90
18797;DHT22;9526;52.612;13.300;2024-03-07T15:22:37;9.00;97.10
18797;DHT22;9526;52.612;13.300;2024-03-07T15:25:00;9.00;97.10
18797;DHT22;9526;52.612;13.300;2024-03-07T15:27:25;9.00;97.10
18797;DHT22;9526;52.612;13.300;2024-03-07T15:29:49;8.90;97.20
18797;DHT22;9526;52.612;13.300;2024-03-07T15:32:12;8.90;99.60
18797;DHT22;9526;52.612;13.300;2024-03-07T15:34:39;9.00;97.90
18797;DHT22;9526;52.612;13.300;2024-03-07T15:37:04;8.90;97.70
18797;DHT22;9526;52.612;13.300;2024-03-07T15:39:29;8.80;97.40
18797;DHT22;9526;52.612;13.300;2024-03-07T15:41:53;8.80;97.10
18797;DHT22;9526;52.612;13.300;2024-03-07T15:44:17;8.70;97.80